Wetterdaten: Woche 04.04.05 - 10.04.05 (KW14)
Datum Zeit Temperatur Luftfeuchte Luftdruck Niederschlag Wind Richtung Sonne Solar Taupunkt Windchill
04.04.2005 00:00 5.0 C 80 % 1026.2 hPa 0.0 l/m 0.6 km/h (0 Bft) O-SO 0.00 h 0 W/m 1.7 C 4.9 C
04.04.2005 01:00 3.8 C 84 % 1026.4 hPa 0.0 l/m 2.1 km/h (1 Bft) O-SO 0.00 h 0 W/m 1.3 C 3.4 C
04.04.2005 02:00 2.8 C 91 % 1026.5 hPa 0.0 l/m 0.0 km/h (0 Bft) N 0.00 h 0 W/m 1.5 C 2.8 C
04.04.2005 03:00 2.3 C 92 % 1026.6 hPa 0.0 l/m 0.9 km/h (0 Bft) O-SO 0.00 h 0 W/m 1.2 C 2.2 C
04.04.2005 04:00 1.4 C 95 % 1027.0 hPa 0.0 l/m 0.8 km/h (0 Bft) O-SO 0.00 h 0 W/m 0.6 C 1.4 C
04.04.2005 05:00 0.9 C 98 % 1027.8 hPa 0.0 l/m 0.0 km/h (0 Bft) N 0.00 h 0 W/m 0.6 C 0.9 C
04.04.2005 06:00 0.5 C 99 % 1027.9 hPa 0.0 l/m 0.0 km/h (0 Bft) N 0.00 h 0 W/m 0.3 C 0.5 C
04.04.2005 07:00 0.6 C 100 % 1027.9 hPa 0.0 l/m 0.9 km/h (0 Bft) O-SO 0.32 h 48 W/m 0.6 C 0.5 C
04.04.2005 08:00 2.5 C 98 % 1027.9 hPa 0.0 l/m 0.2 km/h (0 Bft) O-SO 1.00 h 219 W/m 2.2 C 2.5 C
04.04.2005 09:00 5.5 C 89 % 1027.5 hPa 0.0 l/m 2.3 km/h (1 Bft) O-SO 1.00 h 387 W/m 3.9 C 5.3 C
04.04.2005 10:00 10.1 C 70 % 1026.5 hPa 0.0 l/m 3.7 km/h (1 Bft) SO 1.00 h 528 W/m 4.7 C 10.0 C
04.04.2005 11:00 14.5 C 49 % 1025.9 hPa 0.0 l/m 5.3 km/h (1 Bft) SO 1.00 h 643 W/m 3.9 C 14.5 C
04.04.2005 12:00 15.9 C 45 % 1025.0 hPa 0.0 l/m 3.3 km/h (1 Bft) SO 1.00 h 716 W/m 4.2 C 15.9 C
04.04.2005 13:00 17.6 C 44 % 1023.8 hPa 0.0 l/m 6.6 km/h (2 Bft) O-SO 1.00 h 748 W/m 5.1 C 17.6 C
04.04.2005 14:00 18.5 C 35 % 1023.3 hPa 0.0 l/m 3.8 km/h (1 Bft) SO 1.00 h 741 W/m 2.7 C 18.5 C
04.04.2005 15:00 19.2 C 24 % 1022.2 hPa 0.0 l/m 3.8 km/h (1 Bft) O-SO 0.80 h 557 W/m -2.3 C 19.2 C
04.04.2005 16:00 19.4 C 20 % 1022.2 hPa 0.0 l/m 6.1 km/h (2 Bft) O-SO 1.00 h 563 W/m -4.1 C 19.4 C
04.04.2005 17:00 19.1 C 20 % 1021.4 hPa 0.0 l/m 4.6 km/h (1 Bft) W-NW 0.98 h 419 W/m -4.4 C 19.1 C
04.04.2005 18:00 17.9 C 20 % 1021.3 hPa 0.0 l/m 4.1 km/h (1 Bft) W-NW 1.00 h 236 W/m -5.4 C 17.9 C
04.04.2005 19:00 15.1 C 35 % 1022.1 hPa 0.0 l/m 1.3 km/h (1 Bft) SO 0.37 h 49 W/m -0.3 C 15.1 C
04.04.2005 20:00 12.2 C 50 % 1023.1 hPa 0.0 l/m 3.5 km/h (1 Bft) O-SO 0.00 h 0 W/m 1.9 C 12.2 C
04.04.2005 21:00 9.6 C 61 % 1024.2 hPa 0.0 l/m 4.3 km/h (1 Bft) O-SO 0.00 h 0 W/m 2.4 C 9.3 C
04.04.2005 22:00 7.7 C 71 % 1024.8 hPa 0.0 l/m 2.1 km/h (1 Bft) O 0.00 h 0 W/m 2.7 C 7.5 C
04.04.2005 23:00 6.4 C 75 % 1025.9 hPa 0.0 l/m 1.5 km/h (1 Bft) O 0.00 h 0 W/m 2.3 C 6.2 C
05.04.2005 00:00 5.5 C 80 % 1026.1 hPa 0.0 l/m 1.4 km/h (1 Bft) O 0.00 h 0 W/m 2.3 C 5.3 C
05.04.2005 01:00 5.2 C 82 % 1026.2 hPa 0.0 l/m 1.8 km/h (1 Bft) O-SO 0.00 h 0 W/m 2.4 C 4.9 C
05.04.2005 02:00 4.3 C 87 % 1026.3 hPa 0.0 l/m 0.0 km/h (0 Bft) N 0.00 h 0 W/m 2.3 C 4.3 C
05.04.2005 03:00 3.4 C 92 % 1026.4 hPa 0.0 l/m 0.0 km/h (0 Bft) N 0.00 h 0 W/m 2.2 C 3.4 C
05.04.2005 04:00 2.9 C 96 % 1026.5 hPa 0.0 l/m 0.3 km/h (0 Bft) O 0.00 h 0 W/m 2.2 C 2.8 C
05.04.2005 05:00 2.4 C 98 % 1026.8 hPa 0.0 l/m 0.0 km/h (0 Bft) N 0.00 h 0 W/m 2.1 C 2.4 C
05.04.2005 06:00 2.0 C 99 % 1027.7 hPa 0.0 l/m 0.0 km/h (0 Bft) N 0.00 h 0 W/m 1.9 C 2.0 C
05.04.2005 07:00 3.1 C 96 % 1027.5 hPa 0.0 l/m 0.0 km/h (0 Bft) N 0.63 h 54 W/m 2.5 C 3.1 C
05.04.2005 08:00 4.8 C 87 % 1027.2 hPa 0.0 l/m 0.5 km/h (0 Bft) N-NW 1.00 h 202 W/m 2.8 C 4.7 C
05.04.2005 09:00 7.5 C 75 % 1027.2 hPa 0.0 l/m 0.0 km/h (0 Bft) N 1.00 h 355 W/m 3.4 C 7.5 C
05.04.2005 10:00 11.6 C 61 % 1027.0 hPa 0.0 l/m 3.4 km/h (1 Bft) W-SW 0.60 h 409 W/m 4.2 C 11.6 C
05.04.2005 11:00 15.0 C 50 % 1026.7 hPa 0.0 l/m 9.1 km/h (2 Bft) SO 1.00 h 640 W/m 4.5 C 15.0 C
05.04.2005 12:00 14.8 C 48 % 1026.9 hPa 0.0 l/m 25.4 km/h (4 Bft) NW 0.37 h 453 W/m 3.9 C 14.8 C
05.04.2005 13:00 13.5 C 56 % 1027.0 hPa 0.0 l/m 14.6 km/h (3 Bft) W-NW 0.00 h 178 W/m 4.9 C 13.5 C
05.04.2005 14:00 12.8 C 64 % 1027.1 hPa 0.0 l/m 13.9 km/h (3 Bft) NW 0.00 h 146 W/m 6.2 C 12.8 C
05.04.2005 15:00 12.7 C 65 % 1026.1 hPa 0.0 l/m 11.6 km/h (2 Bft) W-NW 0.00 h 116 W/m 6.3 C 12.7 C
05.04.2005 16:00 13.1 C 63 % 1026.1 hPa 0.0 l/m 5.3 km/h (1 Bft) W-NW 0.00 h 133 W/m 6.1 C 13.1 C
05.04.2005 17:00 13.1 C 62 % 1026.1 hPa 0.0 l/m 4.1 km/h (1 Bft) W 0.00 h 79 W/m 6.0 C 13.1 C
05.04.2005 18:00 12.7 C 65 % 1026.1 hPa 0.0 l/m 5.8 km/h (2 Bft) W-NW 0.00 h 31 W/m 6.3 C 12.7 C
05.04.2005 19:00 12.0 C 70 % 1026.2 hPa 0.0 l/m 1.8 km/h (1 Bft) W-NW 0.00 h 8 W/m 6.7 C 12.0 C
05.04.2005 20:00 10.9 C 79 % 1026.4 hPa 0.0 l/m 1.2 km/h (1 Bft) W-NW 0.00 h 0 W/m 7.4 C 10.9 C
05.04.2005 21:00 10.3 C 85 % 1027.4 hPa 0.0 l/m 2.8 km/h (1 Bft) O-SO 0.00 h 0 W/m 8.0 C 10.2 C
05.04.2005 22:00 9.9 C 88 % 1027.6 hPa 0.0 l/m 2.1 km/h (1 Bft) O-SO 0.00 h 0 W/m 7.9 C 9.9 C
05.04.2005 23:00 9.5 C 91 % 1027.4 hPa 0.0 l/m 2.4 km/h (1 Bft) O-SO 0.00 h 0 W/m 8.1 C 9.2 C
06.04.2005 00:00 9.2 C 95 % 1026.6 hPa 0.0 l/m 1.3 km/h (1 Bft) O-SO 0.00 h 0 W/m 8.4 C 9.1 C
06.04.2005 01:00 8.3 C 97 % 1026.8 hPa 0.0 l/m 0.4 km/h (0 Bft) O-SO 0.00 h 0 W/m 7.8 C 8.3 C
06.04.2005 02:00 7.7 C 98 % 1026.8 hPa 0.0 l/m 0.3 km/h (0 Bft) O-SO 0.00 h 0 W/m 7.4 C 7.7 C
06.04.2005 03:00 7.4 C 98 % 1026.6 hPa 0.0 l/m 0.9 km/h (0 Bft) O-SO 0.00 h 0 W/m 7.1 C 7.3 C
06.04.2005 04:00 6.7 C 99 % 1025.9 hPa 0.0 l/m 2.1 km/h (1 Bft) O-SO 0.00 h 0 W/m 6.5 C 6.4 C
06.04.2005 05:00 5.9 C 100 % 1026.1 hPa 0.0 l/m 1.4 km/h (1 Bft) O-SO 0.00 h 0 W/m 5.8 C 5.7 C
06.04.2005 06:00 5.3 C 100 % 1026.1 hPa 0.0 l/m 3.0 km/h (1 Bft) O-SO 0.00 h 0 W/m 5.3 C 4.8 C
06.04.2005 07:00 5.6 C 100 % 1025.3 hPa 0.0 l/m 0.1 km/h (0 Bft) O-SO 0.00 h 32 W/m 5.6 C 5.6 C
06.04.2005 08:00 6.9 C 98 % 1024.9 hPa 0.0 l/m 0.0 km/h (0 Bft) N 0.33 h 138 W/m 6.6 C 6.9 C
06.04.2005 09:00 8.8 C 92 % 1024.6 hPa 0.0 l/m 1.3 km/h (1 Bft) O-SO 0.70 h 309 W/m 7.5 C 8.8 C
06.04.2005 10:00 11.7 C 78 % 1024.1 hPa 0.0 l/m 3.7 km/h (1 Bft) SO 1.00 h 520 W/m 8.0 C 11.7 C
06.04.2005 11:00 14.7 C 62 % 1022.8 hPa 0.0 l/m 9.5 km/h (2 Bft) O-SO 1.00 h 622 W/m 7.6 C 14.7 C
06.04.2005 12:00 17.3 C 51 % 1021.3 hPa 0.0 l/m 11.9 km/h (2 Bft) SO 1.00 h 685 W/m 7.1 C 17.3 C
06.04.2005 13:00 19.0 C 42 % 1019.7 hPa 0.0 l/m 15.9 km/h (3 Bft) S 1.00 h 750 W/m 5.9 C 19.0 C
06.04.2005 14:00 20.1 C 36 % 1018.4 hPa 0.0 l/m 21.4 km/h (4 Bft) W-SW 1.00 h 730 W/m 4.5 C 20.1 C
06.04.2005 15:00 21.3 C 32 % 1017.4 hPa 0.0 l/m 18.4 km/h (3 Bft) W 1.00 h 631 W/m 3.8 C 21.3 C
06.04.2005 16:00 21.4 C 26 % 1016.3 hPa 0.0 l/m 20.1 km/h (4 Bft) W 0.97 h 476 W/m 1.1 C 21.4 C
06.04.2005 17:00 21.0 C 25 % 1015.7 hPa 0.0 l/m 25.5 km/h (4 Bft) W-NW 0.83 h 358 W/m -0.2 C 21.0 C
06.04.2005 18:00 19.5 C 20 % 1015.9 hPa 0.0 l/m 25.1 km/h (4 Bft) W-NW 0.10 h 108 W/m -4.1 C 19.5 C
06.04.2005 19:00 18.0 C 30 % 1016.1 hPa 0.0 l/m 16.1 km/h (3 Bft) W-NW 0.00 h 18 W/m -0.4 C 18.0 C
06.04.2005 20:00 16.1 C 49 % 1016.4 hPa 0.0 l/m 32.0 km/h (5 Bft) NW 0.00 h 0 W/m 5.3 C 16.1 C
06.04.2005 21:00 14.8 C 55 % 1016.5 hPa 0.0 l/m 13.7 km/h (3 Bft) NW 0.00 h 0 W/m 5.8 C 14.8 C
06.04.2005 22:00 13.1 C 64 % 1016.5 hPa 0.0 l/m 5.8 km/h (2 Bft) O-SO 0.00 h 0 W/m 6.4 C 13.1 C
06.04.2005 23:00 12.4 C 70 % 1015.8 hPa 0.0 l/m 3.6 km/h (1 Bft) O-SO 0.00 h 0 W/m 7.1 C 12.4 C
07.04.2005 00:00 11.9 C 74 % 1015.9 hPa 0.0 l/m 4.1 km/h (1 Bft) O-SO 0.00 h 0 W/m 7.4 C 11.9 C
07.04.2005 01:00 12.6 C 67 % 1015.6 hPa 0.0 l/m 7.6 km/h (2 Bft) W-NW 0.00 h 0 W/m 6.7 C 12.6 C
07.04.2005 02:00 12.3 C 70 % 1014.5 hPa 0.0 l/m 3.3 km/h (1 Bft) O-SO 0.00 h 0 W/m 7.1 C 12.3 C
07.04.2005 03:00 11.8 C 74 % 1013.7 hPa 0.0 l/m 3.3 km/h (1 Bft) O-SO 0.00 h 0 W/m 7.3 C 11.8 C
07.04.2005 04:00 11.5 C 77 % 1012.8 hPa 0.0 l/m 0.6 km/h (0 Bft) O-NO 0.00 h 0 W/m 7.7 C 11.5 C
07.04.2005 05:00 12.3 C 67 % 1012.8 hPa 0.0 l/m 20.7 km/h (4 Bft) W-NW 0.00 h 0 W/m 6.3 C 12.3 C
07.04.2005 06:00 13.3 C 54 % 1011.0 hPa 0.0 l/m 13.1 km/h (3 Bft) S-SO 0.00 h 2 W/m 4.2 C 13.3 C
07.04.2005 07:00 13.1 C 55 % 1010.5 hPa 0.0 l/m 8.9 km/h (2 Bft) SO 0.00 h 15 W/m 4.2 C 13.1 C
07.04.2005 08:00 13.2 C 61 % 1011.4 hPa 0.0 l/m 14.1 km/h (3 Bft) W-NW 0.00 h 65 W/m 5.6 C 13.2 C
07.04.2005 09:00 11.8 C 78 % 1011.7 hPa 0.0 l/m 18.0 km/h (3 Bft) NW 0.00 h 98 W/m 8.2 C 11.8 C
07.04.2005 10:00 11.1 C 87 % 1011.8 hPa 0.3 l/m 8.4 km/h (2 Bft) SW 0.00 h 84 W/m 9.0 C 11.1 C
07.04.2005 11:00 12.5 C 72 % 1011.6 hPa 0.0 l/m 29.9 km/h (5 Bft) W 0.00 h 208 W/m 7.5 C 12.5 C
07.04.2005 12:00 11.8 C 78 % 1011.7 hPa 0.6 l/m 19.3 km/h (3 Bft) S-SW 0.00 h 147 W/m 8.1 C 11.8 C
07.04.2005 13:00 11.4 C 81 % 1011.4 hPa 0.6 l/m 17.9 km/h (3 Bft) S 0.00 h 136 W/m 8.3 C 11.4 C
07.04.2005 14:00 11.3 C 82 % 1010.8 hPa 0.0 l/m 15.3 km/h (3 Bft) S 0.00 h 137 W/m 8.4 C 11.3 C
07.04.2005 15:00 11.4 C 82 % 1010.4 hPa 0.3 l/m 13.2 km/h (3 Bft) S 0.00 h 136 W/m 8.3 C 11.4 C
07.04.2005 16:00 11.3 C 83 % 1009.7 hPa 0.0 l/m 14.0 km/h (3 Bft) S-SO 0.00 h 137 W/m 8.6 C 11.3 C
07.04.2005 17:00 10.9 C 86 % 1008.9 hPa 0.3 l/m 7.3 km/h (2 Bft) SO 0.00 h 71 W/m 8.6 C 10.9 C
07.04.2005 18:00 10.4 C 87 % 1008.8 hPa 0.0 l/m 12.8 km/h (3 Bft) SO 0.00 h 31 W/m 8.4 C 10.4 C
07.04.2005 19:00 10.3 C 85 % 1007.8 hPa 0.6 l/m 10.4 km/h (2 Bft) S-SO 0.00 h 8 W/m 7.9 C 10.0 C
07.04.2005 20:00 9.3 C 93 % 1007.9 hPa 1.2 l/m 2.6 km/h (1 Bft) SO 0.00 h 1 W/m 8.2 C 9.1 C
07.04.2005 21:00 9.1 C 97 % 1007.9 hPa 0.9 l/m 4.2 km/h (1 Bft) S 0.00 h 0 W/m 8.7 C 8.6 C
07.04.2005 22:00 9.1 C 100 % 1007.1 hPa 0.9 l/m 0.5 km/h (0 Bft) O 0.00 h 0 W/m 9.0 C 9.1 C
07.04.2005 23:00 9.0 C 100 % 1006.9 hPa 0.3 l/m 0.0 km/h (0 Bft) N 0.00 h 0 W/m 9.0 C 9.0 C
08.04.2005 00:00 8.9 C 100 % 1006.1 hPa 1.2 l/m 0.1 km/h (0 Bft) O-SO 0.00 h 0 W/m 8.9 C 8.9 C
08.04.2005 01:00 8.9 C 100 % 1005.9 hPa 0.6 l/m 2.9 km/h (1 Bft) SO 0.00 h 0 W/m 8.9 C 8.5 C
08.04.2005 02:00 8.4 C 100 % 1005.6 hPa 0.6 l/m 2.7 km/h (1 Bft) NW 0.00 h 0 W/m 8.4 C 8.1 C
08.04.2005 03:00 7.6 C 100 % 1005.0 hPa 0.9 l/m 7.3 km/h (2 Bft) W-NW 0.00 h 0 W/m 7.6 C 6.4 C
08.04.2005 04:00 7.2 C 100 % 1005.1 hPa 0.9 l/m 12.7 km/h (3 Bft) NW 0.00 h 0 W/m 7.2 C 4.9 C
08.04.2005 05:00 6.7 C 100 % 1005.2 hPa 1.8 l/m 15.4 km/h (3 Bft) NW 0.00 h 0 W/m 6.7 C 3.8 C
08.04.2005 06:00 6.3 C 100 % 1005.2 hPa 0.9 l/m 15.5 km/h (3 Bft) NW 0.00 h 1 W/m 6.3 C 3.5 C
08.04.2005 07:00 5.9 C 100 % 1005.3 hPa 0.6 l/m 13.1 km/h (3 Bft) NW 0.00 h 9 W/m 5.9 C 3.3 C
08.04.2005 08:00 5.8 C 99 % 1006.1 hPa 0.0 l/m 7.4 km/h (2 Bft) NW 0.00 h 30 W/m 5.7 C 4.3 C
08.04.2005 09:00 6.1 C 95 % 1005.7 hPa 0.0 l/m 4.8 km/h (1 Bft) NW 0.00 h 72 W/m 5.4 C 5.2 C
08.04.2005 10:00 6.7 C 94 % 1006.2 hPa 0.0 l/m 1.0 km/h (0 Bft) S-SW 0.00 h 118 W/m 5.8 C 6.6 C
08.04.2005 11:00 6.6 C 93 % 1006.2 hPa 0.3 l/m 5.6 km/h (1 Bft) S-SO 0.00 h 141 W/m 5.5 C 5.7 C
08.04.2005 12:00 7.2 C 90 % 1006.6 hPa 0.0 l/m 7.2 km/h (2 Bft) W 0.00 h 238 W/m 5.7 C 6.0 C
08.04.2005 13:00 7.5 C 88 % 1006.1 hPa 0.3 l/m 9.0 km/h (2 Bft) W 0.00 h 229 W/m 5.6 C 6.1 C
08.04.2005 14:00 6.9 C 84 % 1006.2 hPa 0.0 l/m 13.9 km/h (3 Bft) W-NW 0.00 h 232 W/m 4.4 C 4.3 C
08.04.2005 15:00 7.9 C 77 % 1006.0 hPa 0.0 l/m 13.3 km/h (3 Bft) W-NW 0.00 h 264 W/m 4.1 C 5.7 C
08.04.2005 16:00 8.2 C 76 % 1005.7 hPa 0.0 l/m 8.2 km/h (2 Bft) W-NW 0.00 h 206 W/m 4.2 C 6.9 C
08.04.2005 17:00 7.4 C 82 % 1006.1 hPa 0.3 l/m 3.5 km/h (1 Bft) W 0.00 h 105 W/m 4.5 C 6.8 C
08.04.2005 18:00 6.8 C 89 % 1006.2 hPa 0.0 l/m 1.9 km/h (1 Bft) SO 0.00 h 53 W/m 5.1 C 6.5 C
08.04.2005 19:00 6.6 C 89 % 1006.2 hPa 0.0 l/m 6.8 km/h (2 Bft) SO 0.00 h 14 W/m 5.0 C 5.4 C
08.04.2005 20:00 6.3 C 88 % 1006.3 hPa 0.0 l/m 8.8 km/h (2 Bft) SO 0.00 h 3 W/m 4.5 C 4.5 C
08.04.2005 21:00 5.7 C 89 % 1007.2 hPa 0.0 l/m 5.7 km/h (1 Bft) SO 0.00 h 0 W/m 4.1 C 4.6 C
08.04.2005 22:00 5.3 C 89 % 1007.4 hPa 0.0 l/m 2.4 km/h (1 Bft) O-SO 0.00 h 0 W/m 3.6 C 4.9 C
08.04.2005 23:00 5.1 C 90 % 1007.5 hPa 0.0 l/m 2.9 km/h (1 Bft) O-SO 0.00 h 0 W/m 3.6 C 4.6 C
09.04.2005 00:00 5.1 C 89 % 1007.5 hPa 0.0 l/m 0.0 km/h (0 Bft) N 0.00 h 0 W/m 3.4 C 5.1 C
09.04.2005 01:00 4.6 C 96 % 1007.5 hPa 1.5 l/m 0.0 km/h (0 Bft) N 0.00 h 0 W/m 4.0 C 4.6 C
09.04.2005 02:00 3.5 C 99 % 1007.7 hPa 1.2 l/m 3.9 km/h (1 Bft) O-SO 0.00 h 0 W/m 3.4 C 2.5 C
09.04.2005 03:00 3.4 C 100 % 1007.7 hPa 0.9 l/m 0.2 km/h (0 Bft) O-SO 0.00 h 0 W/m 3.4 C 3.4 C
09.04.2005 04:00 3.1 C 100 % 1007.7 hPa 0.6 l/m 0.0 km/h (0 Bft) N 0.00 h 0 W/m 3.1 C 3.1 C
09.04.2005 05:00 2.5 C 100 % 1007.8 hPa 0.9 l/m 4.8 km/h (1 Bft) O-SO 0.00 h 0 W/m 2.5 C 1.3 C
09.04.2005 06:00 1.9 C 100 % 1007.9 hPa 1.5 l/m 0.4 km/h (0 Bft) O-SO 0.00 h 1 W/m 1.9 C 1.9 C
09.04.2005 07:00 1.6 C 100 % 1009.0 hPa 1.8 l/m 1.1 km/h (0 Bft) O-SO 0.00 h 9 W/m 1.6 C 1.5 C
09.04.2005 08:00 1.4 C 100 % 1009.4 hPa 0.6 l/m 2.6 km/h (1 Bft) O-SO 0.00 h 40 W/m 1.4 C 1.0 C
09.04.2005 09:00 2.4 C 100 % 1009.9 hPa 0.6 l/m 0.9 km/h (0 Bft) O-SO 0.00 h 104 W/m 2.4 C 2.2 C
09.04.2005 10:00 3.3 C 99 % 1010.5 hPa 0.9 l/m 0.0 km/h (0 Bft) N 0.00 h 171 W/m 3.2 C 3.3 C
09.04.2005 11:00 4.3 C 98 % 1011.0 hPa 0.3 l/m 0.5 km/h (0 Bft) W-NW 0.00 h 229 W/m 4.0 C 4.2 C
09.04.2005 12:00 5.4 C 96 % 1011.6 hPa 0.0 l/m 0.8 km/h (0 Bft) NW 0.00 h 180 W/m 4.8 C 5.3 C
09.04.2005 13:00 5.6 C 91 % 1011.9 hPa 0.0 l/m 1.6 km/h (1 Bft) W-NW 0.00 h 120 W/m 4.3 C 5.4 C
09.04.2005 14:00 6.0 C 79 % 1013.1 hPa 0.0 l/m 3.7 km/h (1 Bft) N 0.00 h 204 W/m 2.6 C 5.4 C
09.04.2005 15:00 6.2 C 73 % 1013.8 hPa 0.0 l/m 4.1 km/h (1 Bft) N 0.00 h 230 W/m 1.7 C 5.6 C
09.04.2005 16:00 6.3 C 68 % 1015.0 hPa 0.0 l/m 6.9 km/h (2 Bft) N-NW 0.00 h 216 W/m 1.0 C 5.2 C
09.04.2005 17:00 6.6 C 65 % 1016.2 hPa 0.0 l/m 5.2 km/h (1 Bft) N-NW 0.07 h 193 W/m 0.5 C 5.8 C
09.04.2005 18:00 5.7 C 67 % 1017.5 hPa 0.0 l/m 8.4 km/h (2 Bft) N-NW 0.00 h 74 W/m 0.0 C 3.9 C
09.04.2005 19:00 5.2 C 68 % 1018.7 hPa 0.0 l/m 3.5 km/h (1 Bft) N-NW 0.00 h 18 W/m -0.3 C 4.5 C
09.04.2005 20:00 4.7 C 68 % 1020.2 hPa 0.0 l/m 0.4 km/h (0 Bft) N 0.00 h 2 W/m -0.8 C 4.7 C
09.04.2005 21:00 4.1 C 70 % 1021.7 hPa 0.0 l/m 0.4 km/h (0 Bft) N-NW 0.00 h 0 W/m -0.9 C 4.1 C
09.04.2005 22:00 3.8 C 67 % 1022.2 hPa 0.0 l/m 1.0 km/h (0 Bft) N-NW 0.00 h 0 W/m -1.8 C 3.6 C
09.04.2005 23:00 2.2 C 74 % 1022.6 hPa 0.0 l/m 0.9 km/h (0 Bft) NO 0.00 h 0 W/m -2.0 C 2.1 C
10.04.2005 00:00 1.1 C 83 % 1023.6 hPa 0.0 l/m 0.0 km/h (0 Bft) N 0.00 h 0 W/m -1.4 C 1.1 C
10.04.2005 01:00 1.3 C 87 % 1023.6 hPa 0.0 l/m 0.0 km/h (0 Bft) N 0.00 h 0 W/m -0.6 C 1.3 C
10.04.2005 02:00 1.6 C 87 % 1023.6 hPa 0.0 l/m 0.1 km/h (0 Bft) N 0.00 h 0 W/m -0.3 C 1.6 C
10.04.2005 03:00 0.4 C 91 % 1023.7 hPa 0.0 l/m 0.0 km/h (0 Bft) N 0.00 h 0 W/m -0.9 C 0.4 C
10.04.2005 04:00 -1.3 C 94 % 1024.0 hPa 0.0 l/m 0.0 km/h (0 Bft) N 0.00 h 0 W/m -2.2 C -1.3 C
10.04.2005 05:00 -2.4 C 96 % 1024.2 hPa 0.0 l/m 0.0 km/h (0 Bft) N 0.00 h 0 W/m -2.9 C -2.4 C
10.04.2005 06:00 -2.6 C 99 % 1024.9 hPa 0.0 l/m 0.3 km/h (0 Bft) NO 0.00 h 8 W/m -2.7 C -2.7 C
10.04.2005 07:00 -2.0 C 99 % 1025.2 hPa 0.0 l/m 0.0 km/h (0 Bft) N 0.43 h 81 W/m -2.1 C -2.0 C
10.04.2005 08:00 -0.2 C 93 % 1025.9 hPa 0.0 l/m 0.0 km/h (0 Bft) N 1.00 h 287 W/m -1.2 C -0.2 C
10.04.2005 09:00 2.2 C 77 % 1025.6 hPa 0.0 l/m 1.2 km/h (1 Bft) N-NW 1.00 h 459 W/m -1.5 C 2.0 C
10.04.2005 10:00 5.0 C 58 % 1025.1 hPa 0.0 l/m 5.2 km/h (1 Bft) O-SO 1.00 h 595 W/m -2.6 C 3.9 C
10.04.2005 11:00 6.9 C 51 % 1024.9 hPa 0.0 l/m 3.9 km/h (1 Bft) O-NO 1.00 h 720 W/m -2.7 C 6.3 C
10.04.2005 12:00 9.0 C 49 % 1024.6 hPa 0.0 l/m 7.5 km/h (2 Bft) O-SO 0.77 h 714 W/m -1.1 C 8.1 C
10.04.2005 13:00 9.6 C 49 % 1023.9 hPa 0.0 l/m 8.5 km/h (2 Bft) O 0.47 h 561 W/m -0.5 C 8.7 C
10.04.2005 14:00 9.1 C 48 % 1023.5 hPa 0.0 l/m 4.8 km/h (1 Bft) N-NO 0.10 h 283 W/m -1.2 C 8.7 C
10.04.2005 15:00 8.5 C 53 % 1024.0 hPa 0.0 l/m 6.7 km/h (2 Bft) O-SO 0.00 h 169 W/m -0.6 C 7.5 C
10.04.2005 16:00 9.5 C 50 % 1023.5 hPa 0.0 l/m 3.2 km/h (1 Bft) O-NO 0.10 h 271 W/m -0.5 C 9.1 C
10.04.2005 17:00 9.0 C 51 % 1023.5 hPa 0.0 l/m 2.1 km/h (1 Bft) O-SO 0.00 h 132 W/m -0.6 C 8.8 C
10.04.2005 18:00 9.0 C 52 % 1023.5 hPa 0.0 l/m 0.2 km/h (0 Bft) N 0.10 h 127 W/m -0.4 C 9.0 C
10.04.2005 19:00 8.5 C 52 % 1023.9 hPa 0.0 l/m 0.4 km/h (0 Bft) O 0.07 h 41 W/m -0.9 C 8.5 C
10.04.2005 20:00 7.5 C 56 % 1024.8 hPa 0.0 l/m 0.4 km/h (0 Bft) NO 0.00 h 8 W/m -0.8 C 7.5 C
10.04.2005 21:00 7.1 C 59 % 1025.0 hPa 0.0 l/m 0.0 km/h (0 Bft) N 0.00 h 0 W/m -0.3 C 7.1 C
10.04.2005 22:00 7.0 C 62 % 1025.4 hPa 0.0 l/m 0.7 km/h (0 Bft) N-NO 0.00 h 0 W/m 0.1 C 6.9 C
10.04.2005 23:00 6.8 C 63 % 1025.9 hPa 0.0 l/m 1.1 km/h (0 Bft) N-NO 0.00 h 0 W/m 0.3 C 6.7 C
Min-Datum _ 10.04.05 04.04.05 08.04.05 - 04.04.05 - - - 04.04.05 10.04.05
_ Min-Zeit 06:47 15:21 16:43 - 00:09 - - - 18:56 06:57
Minimum _ -2.8 C 20 % 1004.9 hPa - 0.0 km/h (0 Bft) - - - -6.1 C -4.7 C
Max-Datum _ 06.04.05 04.04.05 04.04.05 08.04.05 06.04.05 - 04.04.05 10.04.05 07.04.05 06.04.05
_ Max-Zeit 17:13 07:15 08:41 05:03 19:52 - 08:02 13:57 10:25 17:13
Maximum _ 21.9 C 100 % 1028.6 hPa 1.8 l/m 53.9 km/h
W-NW (7 Bft)
- 0.05 h 998 W/m 9.5 C 21.9 C
Durchschnitt _ 8.3 C 76 % 1018.2 hPa #25.2 l/m 5.5 km/h (1 Bft) O-SO #31:06 h 235 W/m 3.6 C 8.0 C

Durchschnitt Minimum Temp.7.8 C
Durchschnitt Maximum Temp.8.9 C
© Kaiko 2005